Startpagina
METAR-TAF:

METAR-TAF

Vliegvelden :

Tsjoengking, China

Internationale luchthaven Chongqing Jiangbei

breedte: 29-31N, lengte: 106-29E, hoogte: 351 m

Actueel weer

Dit bericht is 32 minuten geleden gemaakt, om 04:00 UTC
Wind 6 kt uit variabele richting
Temperatuur 35°C
Vochtigheid 53%
Druk 1006 hPa
Zicht 10 km of meer
Weinig wolken op 3000 ft, Stapelwolken.
Weinig wolken op 3000 ft

METAR: ZUCK 230400Z VRB03MPS 9999 FEW030TCU FEW030 35/24 Q1006 NOSIG

Tijdstip: 12:32 (04:32 UTC)

Verwachting

Dit bericht is 9 uur en het 15 minuten geleden gemaakt, om 19:17 UTC
Verwachting geldig van 23 om 00 UTC tot 23 om 24 UTC
Wind 6 kt uit het noordnoordoosten
Zicht: 6000 m
Verspreide wolken op 4000 ft

TAF: ZUCK 221917Z 2300/2324 03003MPS 6000 SCT040 TX38/2308Z TN28/2322Z

Waarnemingen en weersverwachtingen van meer dan 4000 vliegvelden (METAR en TAF).

De beschikbare stations zijn de gele en rode punten op de kaart.

Ga met uw muis naar het station om de naam te zien.

Klik dan om waarnemingen en weersverwachtingen te zien.

kaart wijzigen: klik op de groene knoppen met een zwart kruis om in te zoomen, op de groene knop met een streepje om uit te zoomen of op de groene pijlen voor aangrenzende kaarten.


METAR-TAF: